sensor_id;sensor_type;location;lat;lon;timestamp;temperature;humidity
55008;DHT22;40902;45.116;21.296;2024-03-02T00:02:18;307.90;2304.00
55008;DHT22;40902;45.116;21.296;2024-03-02T00:04:45;307.90;2304.00
55008;DHT22;40902;45.116;21.296;2024-03-02T00:07:14;307.90;2304.00
55008;DHT22;40902;45.116;21.296;2024-03-02T00:09:40;307.80;2304.00
55008;DHT22;40902;45.116;21.296;2024-03-02T00:12:12;307.90;2304.00
55008;DHT22;40902;45.116;21.296;2024-03-02T00:14:40;307.80;2304.00
55008;DHT22;40902;45.116;21.296;2024-03-02T00:17:09;307.80;2304.00
55008;DHT22;40902;45.116;21.296;2024-03-02T00:19:40;307.70;2304.00
55008;DHT22;40902;45.116;21.296;2024-03-02T00:22:07;307.80;2304.00
55008;DHT22;40902;45.116;21.296;2024-03-02T00:24:34;307.70;2304.00
55008;DHT22;40902;45.116;21.296;2024-03-02T00:27:04;307.70;2304.00
55008;DHT22;40902;45.116;21.296;2024-03-02T00:29:31;307.80;2304.00
55008;DHT22;40902;45.116;21.296;2024-03-02T00:32:01;307.80;2304.00
55008;DHT22;40902;45.116;21.296;2024-03-02T00:34:27;307.80;2304.00
55008;DHT22;40902;45.116;21.296;2024-03-02T00:36:52;307.80;2304.00
55008;DHT22;40902;45.116;21.296;2024-03-02T00:39:18;307.80;2304.00
55008;DHT22;40902;45.116;21.296;2024-03-02T00:41:45;307.80;2304.00
55008;DHT22;40902;45.116;21.296;2024-03-02T00:44:18;307.70;2304.00
55008;DHT22;40902;45.116;21.296;2024-03-02T00:46:47;307.70;2304.00
55008;DHT22;40902;45.116;21.296;2024-03-02T00:51:48;307.70;2304.00
55008;DHT22;40902;45.116;21.296;2024-03-02T00:54:21;307.70;2304.00
55008;DHT22;40902;45.116;21.296;2024-03-02T00:56:52;307.70;2304.00
55008;DHT22;40902;45.116;21.296;2024-03-02T00:59:22;307.70;2304.00
55008;DHT22;40902;45.116;21.296;2024-03-02T01:01:51;307.70;2304.00
55008;DHT22;40902;45.116;21.296;2024-03-02T01:04:17;307.70;2304.00
55008;DHT22;40902;45.116;21.296;2024-03-02T01:06:43;307.70;2304.00
55008;DHT22;40902;45.116;21.296;2024-03-02T01:09:09;307.70;2304.00
55008;DHT22;40902;45.116;21.296;2024-03-02T01:11:35;307.80;2304.00
55008;DHT22;40902;45.116;21.296;2024-03-02T01:14:01;307.80;2304.00
55008;DHT22;40902;45.116;21.296;2024-03-02T01:16:26;307.80;2304.00
55008;DHT22;40902;45.116;21.296;2024-03-02T01:18:55;307.80;2304.00
55008;DHT22;40902;45.116;21.296;2024-03-02T01:21:21;307.80;2304.00
55008;DHT22;40902;45.116;21.296;2024-03-02T01:23:46;307.70;2304.00
55008;DHT22;40902;45.116;21.296;2024-03-02T01:26:12;307.80;2304.00
55008;DHT22;40902;45.116;21.296;2024-03-02T01:28:39;307.80;2304.00
55008;DHT22;40902;45.116;21.296;2024-03-02T01:31:05;307.80;2304.00
55008;DHT22;40902;45.116;21.296;2024-03-02T01:33:31;307.70;2304.00
55008;DHT22;40902;45.116;21.296;2024-03-02T01:35:57;307.70;2304.00
55008;DHT22;40902;45.116;21.296;2024-03-02T01:38:24;307.70;2304.00
55008;DHT22;40902;45.116;21.296;2024-03-02T01:40:50;307.70;2304.00
55008;DHT22;40902;45.116;21.296;2024-03-02T01:43:17;307.70;2304.00
55008;DHT22;40902;45.116;21.296;2024-03-02T01:45:43;307.70;2304.00
55008;DHT22;40902;45.116;21.296;2024-03-02T01:48:09;307.70;2304.00
55008;DHT22;40902;45.116;21.296;2024-03-02T01:50:38;307.70;2304.00
55008;DHT22;40902;45.116;21.296;2024-03-02T01:53:04;307.70;2304.00
55008;DHT22;40902;45.116;21.296;2024-03-02T01:55:30;307.80;2304.00
55008;DHT22;40902;45.116;21.296;2024-03-02T01:57:57;307.70;2304.00
55008;DHT22;40902;45.116;21.296;2024-03-02T02:00:25;307.70;2304.00
55008;DHT22;40902;45.116;21.296;2024-03-02T02:02:52;307.80;2304.00
55008;DHT22;40902;45.116;21.296;2024-03-02T02:05:19;307.70;2304.00
55008;DHT22;40902;45.116;21.296;2024-03-02T02:07:46;307.70;2304.00
55008;DHT22;40902;45.116;21.296;2024-03-02T02:10:11;307.70;2304.00
55008;DHT22;40902;45.116;21.296;2024-03-02T02:12:39;307.60;2304.00
55008;DHT22;40902;45.116;21.296;2024-03-02T02:15:28;307.70;2304.00
55008;DHT22;40902;45.116;21.296;2024-03-02T02:17:56;307.60;2304.00
55008;DHT22;40902;45.116;21.296;2024-03-02T02:20:36;307.60;2304.00
55008;DHT22;40902;45.116;21.296;2024-03-02T02:23:05;307.60;2304.00
55008;DHT22;40902;45.116;21.296;2024-03-02T02:25:50;307.60;2304.00
55008;DHT22;40902;45.116;21.296;2024-03-02T02:28:24;307.50;2304.00
55008;DHT22;40902;45.116;21.296;2024-03-02T02:30:52;307.50;2304.00
55008;DHT22;40902;45.116;21.296;2024-03-02T02:33:18;307.50;2304.00
55008;DHT22;40902;45.116;21.296;2024-03-02T02:35:45;307.50;2304.00
55008;DHT22;40902;45.116;21.296;2024-03-02T02:38:12;307.60;2304.00
55008;DHT22;40902;45.116;21.296;2024-03-02T02:40:38;307.60;2304.00
55008;DHT22;40902;45.116;21.296;2024-03-02T02:43:04;307.60;2304.00
55008;DHT22;40902;45.116;21.296;2024-03-02T02:45:33;307.60;2304.00
55008;DHT22;40902;45.116;21.296;2024-03-02T02:47:58;307.60;2304.00
55008;DHT22;40902;45.116;21.296;2024-03-02T02:50:24;307.60;2304.00
55008;DHT22;40902;45.116;21.296;2024-03-02T02:52:50;307.60;2304.00
55008;DHT22;40902;45.116;21.296;2024-03-02T02:55:16;307.60;2304.00
55008;DHT22;40902;45.116;21.296;2024-03-02T02:57:42;307.60;2304.00
55008;DHT22;40902;45.116;21.296;2024-03-02T03:00:13;307.60;2304.00
55008;DHT22;40902;45.116;21.296;2024-03-02T03:02:44;307.60;2304.00
55008;DHT22;40902;45.116;21.296;2024-03-02T03:05:11;307.50;2304.00
55008;DHT22;40902;45.116;21.296;2024-03-02T03:07:39;307.50;2304.00
55008;DHT22;40902;45.116;21.296;2024-03-02T03:10:06;307.50;2304.00
55008;DHT22;40902;45.116;21.296;2024-03-02T03:12:32;307.50;2304.00
55008;DHT22;40902;45.116;21.296;2024-03-02T03:14:59;307.40;2304.00
55008;DHT22;40902;45.116;21.296;2024-03-02T03:17:25;307.40;2304.00
55008;DHT22;40902;45.116;21.296;2024-03-02T03:19:51;307.40;2304.00
55008;DHT22;40902;45.116;21.296;2024-03-02T03:22:27;307.40;2304.00
55008;DHT22;40902;45.116;21.296;2024-03-02T03:25:13;307.40;2304.00
55008;DHT22;40902;45.116;21.296;2024-03-02T03:27:39;307.20;2304.00
55008;DHT22;40902;45.116;21.296;2024-03-02T03:30:09;307.20;2304.00
55008;DHT22;40902;45.116;21.296;2024-03-02T03:32:37;282.50;2278.40
55008;DHT22;40902;45.116;21.296;2024-03-02T03:35:06;282.50;2278.40
55008;DHT22;40902;45.116;21.296;2024-03-02T03:37:45;282.50;2278.40
55008;DHT22;40902;45.116;21.296;2024-03-02T03:40:13;282.40;2278.40
55008;DHT22;40902;45.116;21.296;2024-03-02T03:42:46;282.40;2278.40
55008;DHT22;40902;45.116;21.296;2024-03-02T03:45:16;282.30;2278.40
55008;DHT22;40902;45.116;21.296;2024-03-02T03:47:42;282.40;2278.40
55008;DHT22;40902;45.116;21.296;2024-03-02T03:50:11;282.30;2278.40
55008;DHT22;40902;45.116;21.296;2024-03-02T03:52:39;282.30;2278.40
55008;DHT22;40902;45.116;21.296;2024-03-02T03:55:08;282.30;2278.40
55008;DHT22;40902;45.116;21.296;2024-03-02T03:57:37;282.20;2278.40
55008;DHT22;40902;45.116;21.296;2024-03-02T04:00:06;282.20;2278.40
55008;DHT22;40902;45.116;21.296;2024-03-02T04:02:35;282.20;2278.40
55008;DHT22;40902;45.116;21.296;2024-03-02T04:05:01;282.10;2278.40
55008;DHT22;40902;45.116;21.296;2024-03-02T04:07:38;282.10;2278.40
55008;DHT22;40902;45.116;21.296;2024-03-02T04:10:16;282.20;2278.40
55008;DHT22;40902;45.116;21.296;2024-03-02T04:12:53;282.10;2278.40
55008;DHT22;40902;45.116;21.296;2024-03-02T04:15:25;282.20;2278.40
55008;DHT22;40902;45.116;21.296;2024-03-02T04:17:53;282.10;2278.40
55008;DHT22;40902;45.116;21.296;2024-03-02T04:20:20;282.20;2278.40
55008;DHT22;40902;45.116;21.296;2024-03-02T04:22:46;282.10;2278.40
55008;DHT22;40902;45.116;21.296;2024-03-02T04:25:12;282.10;2278.40
55008;DHT22;40902;45.116;21.296;2024-03-02T04:27:37;282.10;2278.40
55008;DHT22;40902;45.116;21.296;2024-03-02T04:30:07;282.10;2278.40
55008;DHT22;40902;45.116;21.296;2024-03-02T04:32:41;282.10;2278.40
55008;DHT22;40902;45.116;21.296;2024-03-02T04:35:26;282.10;2278.40
55008;DHT22;40902;45.116;21.296;2024-03-02T04:37:54;282.10;2278.40
55008;DHT22;40902;45.116;21.296;2024-03-02T04:40:20;282.00;2278.40
55008;DHT22;40902;45.116;21.296;2024-03-02T04:42:56;282.20;2278.40
55008;DHT22;40902;45.116;21.296;2024-03-02T04:45:35;282.10;2278.40
55008;DHT22;40902;45.116;21.296;2024-03-02T04:48:12;282.10;2278.40
55008;DHT22;40902;45.116;21.296;2024-03-02T04:50:47;282.10;2278.40
55008;DHT22;40902;45.116;21.296;2024-03-02T04:53:25;282.10;2278.40
55008;DHT22;40902;45.116;21.296;2024-03-02T05:44:23;307.40;2304.00
55008;DHT22;40902;45.116;21.296;2024-03-02T05:46:51;282.40;2278.40
55008;DHT22;40902;45.116;21.296;2024-03-02T05:49:26;282.40;2278.40
55008;DHT22;40902;45.116;21.296;2024-03-02T05:52:03;282.50;2278.40
55008;DHT22;40902;45.116;21.296;2024-03-02T05:54:34;282.50;2278.40
55008;DHT22;40902;45.116;21.296;2024-03-02T05:57:03;282.50;2278.40
55008;DHT22;40902;45.116;21.296;2024-03-02T05:59:49;307.30;2304.00
55008;DHT22;40902;45.116;21.296;2024-03-02T06:02:35;307.30;2304.00
55008;DHT22;40902;45.116;21.296;2024-03-02T06:05:06;307.40;2304.00
55008;DHT22;40902;45.116;21.296;2024-03-02T06:07:43;307.40;2304.00
55008;DHT22;40902;45.116;21.296;2024-03-02T06:10:49;307.50;2304.00
55008;DHT22;40902;45.116;21.296;2024-03-02T06:13:17;307.60;2304.00
55008;DHT22;40902;45.116;21.296;2024-03-02T06:15:45;307.60;2304.00
55008;DHT22;40902;45.116;21.296;2024-03-02T06:18:24;307.60;2304.00
55008;DHT22;40902;45.116;21.296;2024-03-02T06:20:50;307.60;2304.00
55008;DHT22;40902;45.116;21.296;2024-03-02T06:23:25;307.70;2304.00
55008;DHT22;40902;45.116;21.296;2024-03-02T06:25:56;307.70;2304.00
55008;DHT22;40902;45.116;21.296;2024-03-02T06:28:27;307.80;2304.00
55008;DHT22;40902;45.116;21.296;2024-03-02T06:31:07;307.70;2304.00
55008;DHT22;40902;45.116;21.296;2024-03-02T06:33:36;307.80;2304.00
55008;DHT22;40902;45.116;21.296;2024-03-02T06:36:09;307.70;2304.00
55008;DHT22;40902;45.116;21.296;2024-03-02T06:38:40;307.80;2304.00
55008;DHT22;40902;45.116;21.296;2024-03-02T06:41:14;307.80;2304.00
55008;DHT22;40902;45.116;21.296;2024-03-02T06:43:42;307.90;2304.00
55008;DHT22;40902;45.116;21.296;2024-03-02T06:46:33;307.80;2304.00
55008;DHT22;40902;45.116;21.296;2024-03-02T06:49:04;307.80;2304.00
55008;DHT22;40902;45.116;21.296;2024-03-02T06:51:44;307.90;2304.00
55008;DHT22;40902;45.116;21.296;2024-03-02T06:54:15;307.90;2304.00
55008;DHT22;40902;45.116;21.296;2024-03-02T06:56:44;307.90;2304.00
55008;DHT22;40902;45.116;21.296;2024-03-02T06:59:10;307.90;2304.00
55008;DHT22;40902;45.116;21.296;2024-03-02T07:01:44;307.90;2304.00
55008;DHT22;40902;45.116;21.296;2024-03-02T07:04:13;307.90;2304.00
55008;DHT22;40902;45.116;21.296;2024-03-02T07:06:59;307.90;2304.00
55008;DHT22;40902;45.116;21.296;2024-03-02T07:09:30;308.00;2304.00
55008;DHT22;40902;45.116;21.296;2024-03-02T07:12:09;307.90;2304.00
55008;DHT22;40902;45.116;21.296;2024-03-02T07:14:43;308.00;2304.00
55008;DHT22;40902;45.116;21.296;2024-03-02T07:17:27;308.00;2304.00
55008;DHT22;40902;45.116;21.296;2024-03-02T07:19:56;308.10;2304.00
55008;DHT22;40902;45.116;21.296;2024-03-02T07:22:44;308.10;2304.00
55008;DHT22;40902;45.116;21.296;2024-03-02T07:25:10;308.10;2304.00
55008;DHT22;40902;45.116;21.296;2024-03-02T07:27:40;332.80;2329.60
55008;DHT22;40902;45.116;21.296;2024-03-02T07:30:09;332.80;2329.60
55008;DHT22;40902;45.116;21.296;2024-03-02T07:32:45;332.80;2329.60
55008;DHT22;40902;45.116;21.296;2024-03-02T07:35:19;332.80;2329.60
55008;DHT22;40902;45.116;21.296;2024-03-02T07:37:56;308.10;2304.00
55008;DHT22;40902;45.116;21.296;2024-03-02T07:40:22;308.10;2304.00
55008;DHT22;40902;45.116;21.296;2024-03-02T07:42:57;308.10;2304.00
55008;DHT22;40902;45.116;21.296;2024-03-02T07:45:25;308.10;2304.00
55008;DHT22;40902;45.116;21.296;2024-03-02T07:47:56;308.10;2304.00
55008;DHT22;40902;45.116;21.296;2024-03-02T07:50:28;308.10;2304.00
55008;DHT22;40902;45.116;21.296;2024-03-02T07:52:53;332.80;2329.60
55008;DHT22;40902;45.116;21.296;2024-03-02T07:55:22;308.10;2304.00
55008;DHT22;40902;45.116;21.296;2024-03-02T07:58:04;308.10;2304.00
55008;DHT22;40902;45.116;21.296;2024-03-02T08:00:38;308.10;2304.00
55008;DHT22;40902;45.116;21.296;2024-03-02T08:03:14;308.10;2304.00
55008;DHT22;40902;45.116;21.296;2024-03-02T08:05:49;332.80;2329.60
55008;DHT22;40902;45.116;21.296;2024-03-02T08:08:17;332.90;2329.60
55008;DHT22;40902;45.116;21.296;2024-03-02T08:10:51;332.80;2329.60
55008;DHT22;40902;45.116;21.296;2024-03-02T08:13:25;332.80;2329.60
55008;DHT22;40902;45.116;21.296;2024-03-02T08:16:15;332.90;2329.60
55008;DHT22;40902;45.116;21.296;2024-03-02T08:18:53;332.90;2329.60
55008;DHT22;40902;45.116;21.296;2024-03-02T08:21:26;332.90;2329.60
55008;DHT22;40902;45.116;21.296;2024-03-02T08:24:02;333.00;2329.60
55008;DHT22;40902;45.116;21.296;2024-03-02T08:26:28;333.00;2329.60
55008;DHT22;40902;45.116;21.296;2024-03-02T08:28:55;333.00;2329.60
55008;DHT22;40902;45.116;21.296;2024-03-02T08:31:21;333.10;2329.60
55008;DHT22;40902;45.116;21.296;2024-03-02T08:33:49;333.10;2329.60
55008;DHT22;40902;45.116;21.296;2024-03-02T08:36:15;333.20;2329.60
55008;DHT22;40902;45.116;21.296;2024-03-02T08:38:41;333.20;2329.60
55008;DHT22;40902;45.116;21.296;2024-03-02T08:41:07;333.10;2329.60
55008;DHT22;40902;45.116;21.296;2024-03-02T08:43:33;333.10;2329.60
55008;DHT22;40902;45.116;21.296;2024-03-02T08:45:59;333.10;2329.60
55008;DHT22;40902;45.116;21.296;2024-03-02T08:48:25;333.10;2329.60
55008;DHT22;40902;45.116;21.296;2024-03-02T08:50:51;333.10;2329.60
55008;DHT22;40902;45.116;21.296;2024-03-02T08:53:16;333.00;2329.60
55008;DHT22;40902;45.116;21.296;2024-03-02T08:55:47;333.10;2329.60
55008;DHT22;40902;45.116;21.296;2024-03-02T08:58:13;333.10;2329.60
55008;DHT22;40902;45.116;21.296;2024-03-02T09:00:39;333.20;2329.60
55008;DHT22;40902;45.116;21.296;2024-03-02T09:03:05;333.20;2329.60
55008;DHT22;40902;45.116;21.296;2024-03-02T09:05:31;333.30;2329.60
55008;DHT22;40902;45.116;21.296;2024-03-02T09:08:02;358.50;2329.60
55008;DHT22;40902;45.116;21.296;2024-03-02T09:10:29;333.70;2329.60
55008;DHT22;40902;45.116;21.296;2024-03-02T09:12:55;333.50;2329.60
55008;DHT22;40902;45.116;21.296;2024-03-02T09:15:20;333.60;2329.60
55008;DHT22;40902;45.116;21.296;2024-03-02T09:17:46;333.60;2329.60
55008;DHT22;40902;45.116;21.296;2024-03-02T09:20:12;333.70;2329.60
55008;DHT22;40902;45.116;21.296;2024-03-02T09:22:39;333.60;2329.60
55008;DHT22;40902;45.116;21.296;2024-03-02T09:25:05;333.70;2329.60
55008;DHT22;40902;45.116;21.296;2024-03-02T09:27:36;333.60;2329.60
55008;DHT22;40902;45.116;21.296;2024-03-02T09:30:08;333.60;2329.60
55008;DHT22;40902;45.116;21.296;2024-03-02T09:32:36;333.50;2329.60
55008;DHT22;40902;45.116;21.296;2024-03-02T09:35:02;333.50;2329.60
55008;DHT22;40902;45.116;21.296;2024-03-02T09:37:28;333.50;2329.60
55008;DHT22;40902;45.116;21.296;2024-03-02T09:39:54;333.40;2329.60
55008;DHT22;40902;45.116;21.296;2024-03-02T09:42:20;333.40;2329.60
55008;DHT22;40902;45.116;21.296;2024-03-02T09:44:47;333.30;2329.60
55008;DHT22;40902;45.116;21.296;2024-03-02T09:47:13;333.20;2329.60
55008;DHT22;40902;45.116;21.296;2024-03-02T09:49:40;333.10;2329.60
55008;DHT22;40902;45.116;21.296;2024-03-02T09:52:05;333.10;2329.60
55008;DHT22;40902;45.116;21.296;2024-03-02T09:54:32;333.00;2329.60
55008;DHT22;40902;45.116;21.296;2024-03-02T09:56:58;333.00;2329.60
55008;DHT22;40902;45.116;21.296;2024-03-02T09:59:26;333.00;2329.60
55008;DHT22;40902;45.116;21.296;2024-03-02T10:02:00;333.00;2329.60
55008;DHT22;40902;45.116;21.296;2024-03-02T10:04:27;333.00;2329.60
55008;DHT22;40902;45.116;21.296;2024-03-02T10:09:44;333.00;2329.60
55008;DHT22;40902;45.116;21.296;2024-03-02T10:12:12;332.90;2329.60
55008;DHT22;40902;45.116;21.296;2024-03-02T10:14:39;332.90;2329.60
55008;DHT22;40902;45.116;21.296;2024-03-02T10:17:09;332.90;2329.60
55008;DHT22;40902;45.116;21.296;2024-03-02T10:19:36;332.90;2329.60
55008;DHT22;40902;45.116;21.296;2024-03-02T10:22:04;333.00;2329.60
55008;DHT22;40902;45.116;21.296;2024-03-02T10:24:42;333.00;2329.60
55008;DHT22;40902;45.116;21.296;2024-03-02T10:27:17;332.90;2329.60
55008;DHT22;40902;45.116;21.296;2024-03-02T10:29:45;332.90;2329.60
55008;DHT22;40902;45.116;21.296;2024-03-02T10:32:12;332.90;2329.60
55008;DHT22;40902;45.116;21.296;2024-03-02T10:34:40;332.90;2329.60
55008;DHT22;40902;45.116;21.296;2024-03-02T10:37:07;333.00;2329.60
55008;DHT22;40902;45.116;21.296;2024-03-02T10:39:40;333.00;2329.60
55008;DHT22;40902;45.116;21.296;2024-03-02T10:42:06;332.90;2329.60
55008;DHT22;40902;45.116;21.296;2024-03-02T10:44:33;332.90;2329.60
55008;DHT22;40902;45.116;21.296;2024-03-02T10:47:04;332.90;2329.60
55008;DHT22;40902;45.116;21.296;2024-03-02T10:49:31;333.00;2329.60
55008;DHT22;40902;45.116;21.296;2024-03-02T10:52:01;333.00;2329.60
55008;DHT22;40902;45.116;21.296;2024-03-02T10:54:27;333.00;2329.60
55008;DHT22;40902;45.116;21.296;2024-03-02T10:57:04;333.00;2329.60
55008;DHT22;40902;45.116;21.296;2024-03-02T10:59:35;333.00;2329.60
55008;DHT22;40902;45.116;21.296;2024-03-02T11:02:03;332.90;2329.60
55008;DHT22;40902;45.116;21.296;2024-03-02T11:04:31;332.90;2329.60
55008;DHT22;40902;45.116;21.296;2024-03-02T11:07:07;332.90;2329.60
55008;DHT22;40902;45.116;21.296;2024-03-02T11:09:36;333.00;2329.60
55008;DHT22;40902;45.116;21.296;2024-03-02T11:14:30;333.00;2329.60
55008;DHT22;40902;45.116;21.296;2024-03-02T11:16:56;333.00;2329.60
55008;DHT22;40902;45.116;21.296;2024-03-02T11:19:23;333.00;2329.60
55008;DHT22;40902;45.116;21.296;2024-03-02T11:21:50;333.00;2329.60
55008;DHT22;40902;45.116;21.296;2024-03-02T11:26:53;333.00;2329.60
55008;DHT22;40902;45.116;21.296;2024-03-02T11:34:41;333.10;2329.60
55008;DHT22;40902;45.116;21.296;2024-03-02T11:37:12;333.10;2329.60
55008;DHT22;40902;45.116;21.296;2024-03-02T11:39:39;333.20;2329.60
55008;DHT22;40902;45.116;21.296;2024-03-02T11:42:08;333.20;2329.60
55008;DHT22;40902;45.116;21.296;2024-03-02T11:44:36;333.30;2329.60
55008;DHT22;40902;45.116;21.296;2024-03-02T11:47:08;333.40;2329.60
55008;DHT22;40902;45.116;21.296;2024-03-02T11:49:37;333.50;2329.60
55008;DHT22;40902;45.116;21.296;2024-03-02T11:52:05;333.60;2329.60
55008;DHT22;40902;45.116;21.296;2024-03-02T11:54:33;333.70;2329.60
55008;DHT22;40902;45.116;21.296;2024-03-02T11:57:03;358.40;2329.60
55008;DHT22;40902;45.116;21.296;2024-03-02T11:59:30;358.90;2329.60
55008;DHT22;40902;45.116;21.296;2024-03-02T12:01:57;358.70;2329.60
55008;DHT22;40902;45.116;21.296;2024-03-02T12:04:24;358.80;2329.60
55008;DHT22;40902;45.116;21.296;2024-03-02T12:07:00;358.90;2329.60
55008;DHT22;40902;45.116;21.296;2024-03-02T12:09:29;359.00;2329.60
55008;DHT22;40902;45.116;21.296;2024-03-02T12:14:32;359.10;2329.60
55008;DHT22;40902;45.116;21.296;2024-03-02T12:17:00;359.30;2329.60
55008;DHT22;40902;45.116;21.296;2024-03-02T12:19:27;359.30;2329.60
55008;DHT22;40902;45.116;21.296;2024-03-02T12:21:59;359.30;2329.60
55008;DHT22;40902;45.116;21.296;2024-03-02T12:24:27;384.00;2329.60
55008;DHT22;40902;45.116;21.296;2024-03-02T12:26:53;384.10;2329.60
55008;DHT22;40902;45.116;21.296;2024-03-02T12:29:20;384.10;2329.60
55008;DHT22;40902;45.116;21.296;2024-03-02T12:31:50;384.10;2329.60
55008;DHT22;40902;45.116;21.296;2024-03-02T12:34:17;384.10;2329.60
55008;DHT22;40902;45.116;21.296;2024-03-02T12:36:45;384.00;2329.60
55008;DHT22;40902;45.116;21.296;2024-03-02T12:39:15;384.00;2329.60
55008;DHT22;40902;45.116;21.296;2024-03-02T12:41:41;384.00;2329.60
55008;DHT22;40902;45.116;21.296;2024-03-02T12:44:08;359.30;2329.60
55008;DHT22;40902;45.116;21.296;2024-03-02T12:46:34;359.30;2329.60
55008;DHT22;40902;45.116;21.296;2024-03-02T12:49:12;359.30;2329.60
55008;DHT22;40902;45.116;21.296;2024-03-02T12:51:39;359.30;2329.60
55008;DHT22;40902;45.116;21.296;2024-03-02T12:54:11;359.30;2329.60
55008;DHT22;40902;45.116;21.296;2024-03-02T12:56:38;359.30;2329.60
55008;DHT22;40902;45.116;21.296;2024-03-02T12:59:04;359.30;2329.60
55008;DHT22;40902;45.116;21.296;2024-03-02T13:01:30;359.30;2329.60
55008;DHT22;40902;45.116;21.296;2024-03-02T13:07:19;359.20;2329.60
55008;DHT22;40902;45.116;21.296;2024-03-02T13:09:45;359.30;2329.60
55008;DHT22;40902;45.116;21.296;2024-03-02T13:12:12;359.30;2329.60
55008;DHT22;40902;45.116;21.296;2024-03-02T13:14:37;384.00;2329.60
55008;DHT22;40902;45.116;21.296;2024-03-02T13:17:03;384.10;2329.60
55008;DHT22;40902;45.116;21.296;2024-03-02T13:19:32;384.20;2329.60
55008;DHT22;40902;45.116;21.296;2024-03-02T13:21:57;384.10;2329.60
55008;DHT22;40902;45.116;21.296;2024-03-02T13:24:24;384.30;2329.60
55008;DHT22;40902;45.116;21.296;2024-03-02T13:26:55;384.20;2329.60
55008;DHT22;40902;45.116;21.296;2024-03-02T13:29:22;384.30;2329.60
55008;DHT22;40902;45.116;21.296;2024-03-02T13:31:53;384.50;2329.60
55008;DHT22;40902;45.116;21.296;2024-03-02T13:34:19;384.30;2329.60
55008;DHT22;40902;45.116;21.296;2024-03-02T13:36:45;384.20;2329.60
55008;DHT22;40902;45.116;21.296;2024-03-02T13:39:10;384.80;2329.60
55008;DHT22;40902;45.116;21.296;2024-03-02T13:41:36;384.70;2329.60
55008;DHT22;40902;45.116;21.296;2024-03-02T13:44:03;384.50;2329.60
55008;DHT22;40902;45.116;21.296;2024-03-02T13:46:29;384.50;2329.60
55008;DHT22;40902;45.116;21.296;2024-03-02T13:48:55;384.50;2329.60
55008;DHT22;40902;45.116;21.296;2024-03-02T13:51:21;384.40;2329.60
55008;DHT22;40902;45.116;21.296;2024-03-02T13:53:47;384.50;2329.60
55008;DHT22;40902;45.116;21.296;2024-03-02T13:56:13;384.40;2329.60
55008;DHT22;40902;45.116;21.296;2024-03-02T13:58:38;384.40;2329.60
55008;DHT22;40902;45.116;21.296;2024-03-02T14:01:05;384.40;2329.60
55008;DHT22;40902;45.116;21.296;2024-03-02T14:03:31;384.40;2329.60
55008;DHT22;40902;45.116;21.296;2024-03-02T14:05:57;384.50;2329.60
55008;DHT22;40902;45.116;21.296;2024-03-02T14:08:23;384.60;2329.60
55008;DHT22;40902;45.116;21.296;2024-03-02T14:10:49;384.50;2329.60
55008;DHT22;40902;45.116;21.296;2024-03-02T14:13:15;384.60;2329.60
55008;DHT22;40902;45.116;21.296;2024-03-02T14:15:41;384.70;2329.60
55008;DHT22;40902;45.116;21.296;2024-03-02T14:18:07;384.70;2329.60
55008;DHT22;40902;45.116;21.296;2024-03-02T14:20:36;384.70;2329.60
55008;DHT22;40902;45.116;21.296;2024-03-02T14:23:03;384.70;2329.60
55008;DHT22;40902;45.116;21.296;2024-03-02T14:25:30;384.90;2329.60
55008;DHT22;40902;45.116;21.296;2024-03-02T14:30:25;409.90;2355.20
55008;DHT22;40902;45.116;21.296;2024-03-02T14:32:51;384.90;2329.60
55008;DHT22;40902;45.116;21.296;2024-03-02T15:14:39;410.30;2355.20
55008;DHT22;40902;45.116;21.296;2024-03-02T15:58:51;410.00;2355.20
55008;DHT22;40902;45.116;21.296;2024-03-02T16:01:17;409.70;2355.20
55008;DHT22;40902;45.116;21.296;2024-03-02T16:11:02;384.90;2329.60
55008;DHT22;40902;45.116;21.296;2024-03-02T16:13:35;384.60;2329.60
55008;DHT22;40902;45.116;21.296;2024-03-02T16:42:53;359.30;2329.60
55008;DHT22;40902;45.116;21.296;2024-03-02T16:45:19;359.10;2329.60
55008;DHT22;40902;45.116;21.296;2024-03-02T17:31:54;358.70;2329.60
55008;DHT22;40902;45.116;21.296;2024-03-02T17:34:21;358.40;2329.60
55008;DHT22;40902;45.116;21.296;2024-03-02T17:36:49;333.70;2329.60
55008;DHT22;40902;45.116;21.296;2024-03-02T17:39:15;358.40;2329.60
55008;DHT22;40902;45.116;21.296;2024-03-02T17:56:31;358.40;2329.60
55008;DHT22;40902;45.116;21.296;2024-03-02T18:08:41;333.60;2329.60
55008;DHT22;40902;45.116;21.296;2024-03-02T18:11:07;333.30;2329.60
55008;DHT22;40902;45.116;21.296;2024-03-02T18:13:33;333.20;2329.60
55008;DHT22;40902;45.116;21.296;2024-03-02T18:16:02;333.20;2329.60
55008;DHT22;40902;45.116;21.296;2024-03-02T18:18:28;333.10;2329.60
55008;DHT22;40902;45.116;21.296;2024-03-02T18:20:54;333.40;2329.60
55008;DHT22;40902;45.116;21.296;2024-03-02T18:23:19;333.10;2329.60
55008;DHT22;40902;45.116;21.296;2024-03-02T18:25:45;333.00;2329.60
55008;DHT22;40902;45.116;21.296;2024-03-02T18:28:14;333.00;2329.60
55008;DHT22;40902;45.116;21.296;2024-03-02T18:30:40;333.00;2329.60
55008;DHT22;40902;45.116;21.296;2024-03-02T18:33:06;333.00;2329.60
55008;DHT22;40902;45.116;21.296;2024-03-02T18:35:32;333.00;2329.60
55008;DHT22;40902;45.116;21.296;2024-03-02T18:37:59;333.00;2329.60
55008;DHT22;40902;45.116;21.296;2024-03-02T18:40:24;333.10;2329.60
55008;DHT22;40902;45.116;21.296;2024-03-02T18:42:50;333.00;2329.60
55008;DHT22;40902;45.116;21.296;2024-03-02T18:45:16;333.10;2329.60
55008;DHT22;40902;45.116;21.296;2024-03-02T18:47:44;333.10;2329.60
55008;DHT22;40902;45.116;21.296;2024-03-02T18:50:10;333.10;2329.60
55008;DHT22;40902;45.116;21.296;2024-03-02T18:52:36;333.20;2329.60
55008;DHT22;40902;45.116;21.296;2024-03-02T18:55:05;333.10;2329.60
55008;DHT22;40902;45.116;21.296;2024-03-02T18:57:32;333.10;2329.60
55008;DHT22;40902;45.116;21.296;2024-03-02T18:59:58;333.10;2329.60
55008;DHT22;40902;45.116;21.296;2024-03-02T19:02:24;333.10;2329.60
55008;DHT22;40902;45.116;21.296;2024-03-02T19:04:54;333.00;2329.60